• Join FlightAware (Why Join?)
  • Login
  • US Flag 
10:01PM EDT


 

Airport Tracker/Info


-or-


 

Live Flight TrackerFlight Track Log ✈ ASQ4233 ✈ 05-May-2013 ✈ KMAF - KIAH

Flight Track Log - Related Links

Times and Time Zones

All times are in EDT time to prevent confusion due to time zone crossing. See the ASQ4233 flight status page for this flight to view local times or setup timezone preferences in your user account.

Time Position Orientation Groundspeed Altitude Reporting Facility
EDT Latitude Longitude Course Direction KTS MPH feet Rate Location/Type
02:34PM 31.8675 -101.9753 109° East 291 335 10,500  Level Fort Worth Center
02:35PM 31.8205 -101.8281 111° Southeast  Level FlightAware Approximate
02:35PM 31.8356 -101.8708 110° East 316 364 11,200  Level Fort Worth Center
02:36PM 31.7877 -101.7370 113° Southeast  Level FlightAware Approximate
02:36PM 31.7981 -101.7494 110° East 358 412 13,400  Level Fort Worth Center
02:37PM 31.7546 -101.6460 113° Southeast  Level FlightAware Approximate
02:37PM 31.7622 -101.6403 111° Southeast 365 420 15,800  Level Fort Worth Center
02:38PM 31.7341 -101.5696 106° East  Level FlightAware Approximate
02:38PM 31.7225 -101.5186 111° Southeast 379 436 16,900  Level Fort Worth Center
02:39PM 31.7145 -101.4929 109° East  Level FlightAware Approximate
02:39PM 31.6847 -101.3950 110° East 391 450 17,800  Level Fort Worth Center
02:40PM 31.6919 -101.4173 109° East  Level FlightAware Approximate
02:40PM 31.6408 -101.2614 111° Southeast 413 475 18,900  Level Fort Worth Center
02:41PM 31.5969 -101.1278 111° Southeast 427 491 20,500 1,500 Climbing Fort Worth Center
02:42PM 31.5525 -100.9969 112° Southeast 432 497 22,000 1,380 Climbing Fort Worth Center
02:43PM 31.5106 -100.8611 110° East 438 504 23,300 1,260 Climbing Fort Worth Center
02:44PM 31.4639 -100.7256 112° Southeast 438 504 24,600 1,260 Climbing Fort Worth Center
02:45PM 31.4214 -100.5925 110° East 438 504 25,900 1,200 Climbing Fort Worth Center
02:48PM 31.3094 -100.2608 111° Southeast 451 519 28,900 1,140 Climbing Houston Center
02:49PM 31.2628 -100.1247 112° Southeast 451 519 30,000 960 Climbing Houston Center
02:50PM 31.2150 -99.9842 112° Southeast 460 529 30,900 480 Climbing Houston Center
02:51PM 31.1653 -99.8386 112° Southeast 475 547 31,000  Climbing Houston Center
02:52PM 31.1353 -99.6747 102° East 509 586 31,000  Level Houston Center
02:53PM 31.1222 -99.5089 95° East 513 590 31,000  Level Houston Center
02:54PM 31.1072 -99.3117 95° East 510 587 31,000  Level Houston Center
02:55PM 31.0947 -99.1467 95° East 508 585 31,000  Level Houston Center
02:57PM 31.0785 -98.9602 96° East  Level FlightAware Approximate
02:57PM 31.0678 -98.8181 96° East 505 581 31,000  Level Houston Center
02:58PM 31.0528 -98.6539 96° East 505 581 31,000  Level Houston Center
02:59PM 31.0383 -98.4894 96° East 505 581 31,000  Level Houston Center
03:00PM 31.0247 -98.3256 95° East 504 580 31,000  Level Houston Center
03:01PM 31.0078 -98.1347 96° East 503 579 31,000  Level Houston Center
03:02PM 30.9928 -97.9708 96° East 505 581 31,000  Level Houston Center
03:03PM 30.9775 -97.8072 96° East 504 580 31,000  Level Houston Center
03:04PM 30.9628 -97.6450 96° East 502 578 31,000  Level Houston Center
03:05PM 30.9481 -97.4831 96° East 499 574 31,000  Level Houston Center
03:06PM 30.9186 -97.3272 102° East 496 571 31,000  Level Houston Center
03:07PM 30.8664 -97.1503 109° East 509 586 31,000  Level Houston Center
03:08PM 30.8175 -96.9956 110° East 509 586 31,000 -180 Level Houston Center
03:10PM 30.7672 -96.8431 111° Southeast 499 574 30,700 -660 Descending Houston Center
03:11PM 30.7175 -96.6872 110° East 509 586 29,700 -1,560 Descending Houston Center
03:12PM 30.6683 -96.5317 110° East 510 587 27,500 -2,700 Descending Houston Center
03:12PM 30.6247 -96.3986 111° Southeast 509 586 24,900 -3,420 Descending Houston Center
03:13PM 30.6111 -96.3500 108° East 509 586 24,000 -3,060 Descending Houston Center
03:14PM 30.5628 -96.2017 111° Southeast 493 567 20,900 -3,300 Descending Houston Center
03:14PM 30.5333 -96.1106 111° Southeast 452 520 18,500 -3,600 Descending Houston Center
03:15PM 30.5186 -96.0631 110° East 458 527 17,200 -3,600 Descending Houston Center
03:16PM 30.4767 -95.9378 111° Southeast 430 495 13,400 -3,300 Descending Houston Center
03:16PM 30.4494 -95.8683 114° Southeast 403 464 12,100 -1,380 Descending Houston Center
03:17PM 30.4208 -95.8283 130° Southeast 403 464 12,000 -360 Descending Houston Center
03:17PM 30.3586 -95.7650 139° Southeast 402 463 11,700 -600 Descending Houston Center
03:18PM 30.3381 -95.7419 136° Southeast 400 460 11,400 -1,020 Descending Houston Center
03:18PM 30.2867 -95.6889 138° Southeast 370 426 10,800 -1,020 Descending Houston Center
03:19PM 30.2608 -95.6625 139° Southeast 377 434 10,400 -1,320 Descending Houston Center
03:19PM 30.2222 -95.6239 139° Southeast 322 371 9,600 -2,100 Descending Houston Center
03:20PM 30.1825 -95.5797 136° Southeast 321 369 8,200 -2,340 Descending Houston Center
03:20PM 30.1503 -95.5478 139° Southeast 323 372 7,000 -1,980 Descending Houston Center
03:21PM 30.1183 -95.5097 134° Southeast 318 366 6,200 -900 Descending Houston Center
03:21PM 30.1061 -95.4542 104° East 288 331 6,000 -240 Descending Houston Center
03:22PM 30.1067 -95.4206 89° East 287 330 6,000  Level Houston Center
03:22PM 30.1047 -95.3697 93° East 285 328 6,000  Level Houston Center
03:23PM 30.1064 -95.3275 87° East 287 330 6,000 -720 Level Houston Center
03:23PM 30.1044 -95.2756 92° East 291 335 5,300 -1,260 Descending Houston Center
03:24PM 30.1056 -95.2353 88° East 287 330 4,700 -1,500 Descending Houston Center
03:24PM 30.1050 -95.1886 91° East 236 272 3,800 -1,260 Descending Houston Center
03:25PM 30.1047 -95.1561 91° East 261 300 3,400 -1,080 Descending Houston Center
03:25PM 30.0847 -95.1283 130° Southeast 239 275 2,800 -1,500 Descending Houston Center
03:26PM 30.0458 -95.1244 175° South 239 275 1,900 -720 Descending Houston Center
03:26PM 30.0317 -95.1444 231° Southwest 190 219 2,000 60 Climbing Houston Center
03:27PM 30.0125 -95.1706 230° Southwest 206 237 2,000  Level Houston Center
03:27PM 30.0069 -95.1958 256° West 162 186 2,000 180 Level Houston Center
03:28PM 30.0033 -95.2294 263° West 195 224 2,200 -540 Climbing Houston Center
03:29PM 30.0078 -95.2511 283° West 163 188 1,500 -1,080 Descending Houston Center
03:29PM 30.0072 -95.2744 268° West 173 199 1,100 -840 Descending Houston Center
03:30PM 30.0075 -95.2944 271° West 143 165 700 -720 Descending Houston Center
03:30PM 30.0078 -95.3178 271° West 152 175 400 -480 Descending Houston Center